sensor_id;sensor_type;location;lat;lon;timestamp;pressure;altitude;pressure_sealevel;temperature;humidity
19751;BME280;4663;49.120;9.730;2023-04-01T00:01:18;96649.94;;;4.57;92.84
19751;BME280;4663;49.120;9.730;2023-04-01T00:03:44;96647.50;;;4.47;91.95
19751;BME280;4663;49.120;9.730;2023-04-01T00:06:12;96652.31;;;4.52;92.31
19751;BME280;4663;49.120;9.730;2023-04-01T00:08:38;96646.69;;;4.24;94.20
19751;BME280;4663;49.120;9.730;2023-04-01T00:11:04;96652.91;;;4.39;94.57
19751;BME280;4663;49.120;9.730;2023-04-01T00:13:29;96656.88;;;4.43;92.16
19751;BME280;4663;49.120;9.730;2023-04-01T00:15:55;96650.47;;;4.53;93.10
19751;BME280;4663;49.120;9.730;2023-04-01T00:18:21;96645.50;;;4.50;92.05
19751;BME280;4663;49.120;9.730;2023-04-01T00:20:48;96651.28;;;4.38;92.99
19751;BME280;4663;49.120;9.730;2023-04-01T00:23:14;96643.13;;;4.70;89.79
19751;BME280;4663;49.120;9.730;2023-04-01T00:25:40;96640.44;;;4.55;91.39
19751;BME280;4663;49.120;9.730;2023-04-01T00:28:06;96653.13;;;4.53;92.40
19751;BME280;4663;49.120;9.730;2023-04-01T00:30:31;96643.97;;;4.70;91.53
19751;BME280;4663;49.120;9.730;2023-04-01T00:32:57;96658.00;;;4.49;93.35
19751;BME280;4663;49.120;9.730;2023-04-01T00:35:22;96644.66;;;4.49;91.38
19751;BME280;4663;49.120;9.730;2023-04-01T00:37:47;96655.84;;;4.68;92.08
19751;BME280;4663;49.120;9.730;2023-04-01T00:42:50;96646.47;;;4.72;91.49
19751;BME280;4663;49.120;9.730;2023-04-01T00:45:42;96646.38;;;4.65;91.89
19751;BME280;4663;49.120;9.730;2023-04-01T00:48:18;96649.50;;;4.69;92.08
19751;BME280;4663;49.120;9.730;2023-04-01T00:50:54;96643.88;;;4.64;91.49
19751;BME280;4663;49.120;9.730;2023-04-01T00:53:22;96637.31;;;4.66;91.48
19751;BME280;4663;49.120;9.730;2023-04-01T00:56:01;96654.75;;;4.39;93.91
19751;BME280;4663;49.120;9.730;2023-04-01T00:58:31;96647.34;;;4.64;92.34
19751;BME280;4663;49.120;9.730;2023-04-01T01:00:59;96649.38;;;4.24;94.39
19751;BME280;4663;49.120;9.730;2023-04-01T01:03:25;96651.31;;;4.53;93.53
19751;BME280;4663;49.120;9.730;2023-04-01T01:09:12;96643.28;;;4.53;93.19
19751;BME280;4663;49.120;9.730;2023-04-01T01:17:26;96638.78;;;4.54;91.71
19751;BME280;4663;49.120;9.730;2023-04-01T01:20:18;96638.31;;;4.27;92.98
19751;BME280;4663;49.120;9.730;2023-04-01T01:23:19;96636.19;;;4.22;91.99
19751;BME280;4663;49.120;9.730;2023-04-01T01:26:02;96640.75;;;3.90;93.40
19751;BME280;4663;49.120;9.730;2023-04-01T01:36:52;96635.34;;;3.98;94.54
19751;BME280;4663;49.120;9.730;2023-04-01T01:39:20;96633.31;;;3.77;94.78
19751;BME280;4663;49.120;9.730;2023-04-01T01:41:52;96639.44;;;4.09;94.15
19751;BME280;4663;49.120;9.730;2023-04-01T01:44:19;96632.50;;;4.00;94.31
19751;BME280;4663;49.120;9.730;2023-04-01T01:46:46;96629.59;;;4.09;94.02
19751;BME280;4663;49.120;9.730;2023-04-01T01:49:14;96625.59;;;4.29;93.43
19751;BME280;4663;49.120;9.730;2023-04-01T01:51:40;96627.91;;;3.85;95.42
19751;BME280;4663;49.120;9.730;2023-04-01T01:54:12;96634.94;;;4.33;93.63
19751;BME280;4663;49.120;9.730;2023-04-01T01:56:39;96633.03;;;4.42;93.07
19751;BME280;4663;49.120;9.730;2023-04-01T01:59:08;96632.84;;;4.43;92.02
19751;BME280;4663;49.120;9.730;2023-04-01T02:01:39;96643.53;;;4.43;93.40
19751;BME280;4663;49.120;9.730;2023-04-01T02:04:07;96639.56;;;4.39;92.04
19751;BME280;4663;49.120;9.730;2023-04-01T02:06:37;96641.13;;;4.48;92.50
19751;BME280;4663;49.120;9.730;2023-04-01T02:09:06;96640.22;;;4.41;94.46
19751;BME280;4663;49.120;9.730;2023-04-01T02:11:43;96637.63;;;4.09;95.01
19751;BME280;4663;49.120;9.730;2023-04-01T02:14:15;96633.06;;;4.57;92.76
19751;BME280;4663;49.120;9.730;2023-04-01T02:19:11;96639.44;;;4.32;93.21
19751;BME280;4663;49.120;9.730;2023-04-01T02:21:38;96632.41;;;4.55;93.03
19751;BME280;4663;49.120;9.730;2023-04-01T02:24:08;96633.81;;;4.27;93.56
19751;BME280;4663;49.120;9.730;2023-04-01T02:26:35;96636.09;;;4.54;92.98
19751;BME280;4663;49.120;9.730;2023-04-01T02:29:01;96635.88;;;4.79;91.84
19751;BME280;4663;49.120;9.730;2023-04-01T02:31:29;96628.47;;;4.66;92.57
19751;BME280;4663;49.120;9.730;2023-04-01T02:33:55;96630.25;;;4.73;91.67
19751;BME280;4663;49.120;9.730;2023-04-01T02:36:20;96635.69;;;4.80;90.84
19751;BME280;4663;49.120;9.730;2023-04-01T02:38:46;96641.31;;;4.85;91.44
19751;BME280;4663;49.120;9.730;2023-04-01T02:41:13;96641.41;;;4.92;90.97
19751;BME280;4663;49.120;9.730;2023-04-01T02:43:39;96648.59;;;4.77;92.41
19751;BME280;4663;49.120;9.730;2023-04-01T02:46:04;96629.50;;;4.80;91.60
19751;BME280;4663;49.120;9.730;2023-04-01T02:48:30;96636.56;;;4.72;92.17
19751;BME280;4663;49.120;9.730;2023-04-01T02:50:56;96643.88;;;4.64;93.45
19751;BME280;4663;49.120;9.730;2023-04-01T02:53:21;96643.44;;;4.75;93.81
19751;BME280;4663;49.120;9.730;2023-04-01T02:55:47;96646.72;;;4.62;93.86
19751;BME280;4663;49.120;9.730;2023-04-01T02:58:16;96641.72;;;4.59;93.27
19751;BME280;4663;49.120;9.730;2023-04-01T03:00:41;96649.13;;;4.57;93.97
19751;BME280;4663;49.120;9.730;2023-04-01T03:03:07;96649.22;;;4.40;94.06
19751;BME280;4663;49.120;9.730;2023-04-01T03:05:33;96649.03;;;4.65;93.96
19751;BME280;4663;49.120;9.730;2023-04-01T03:07:58;96639.75;;;4.38;92.02
19751;BME280;4663;49.120;9.730;2023-04-01T03:10:24;96637.59;;;4.56;91.15
19751;BME280;4663;49.120;9.730;2023-04-01T03:12:49;96640.63;;;4.68;91.92
19751;BME280;4663;49.120;9.730;2023-04-01T03:15:15;96636.88;;;4.78;90.85
19751;BME280;4663;49.120;9.730;2023-04-01T03:17:41;96638.34;;;4.80;91.74
19751;BME280;4663;49.120;9.730;2023-04-01T03:20:09;96643.72;;;4.80;91.90
19751;BME280;4663;49.120;9.730;2023-04-01T03:22:35;96639.00;;;4.82;91.23
19751;BME280;4663;49.120;9.730;2023-04-01T03:25:02;96638.97;;;4.67;92.42
19751;BME280;4663;49.120;9.730;2023-04-01T03:27:28;96634.81;;;4.65;91.64
19751;BME280;4663;49.120;9.730;2023-04-01T03:29:53;96647.06;;;4.59;92.55
19751;BME280;4663;49.120;9.730;2023-04-01T03:32:18;96639.63;;;4.69;91.37
19751;BME280;4663;49.120;9.730;2023-04-01T03:34:44;96637.91;;;4.77;91.51
19751;BME280;4663;49.120;9.730;2023-04-01T03:37:09;96642.19;;;4.63;90.80
19751;BME280;4663;49.120;9.730;2023-04-01T03:39:35;96638.91;;;4.76;91.96
19751;BME280;4663;49.120;9.730;2023-04-01T03:42:00;96632.56;;;4.77;91.43
19751;BME280;4663;49.120;9.730;2023-04-01T03:44:26;96631.50;;;4.63;91.45
19751;BME280;4663;49.120;9.730;2023-04-01T03:46:51;96638.19;;;4.43;92.80
19751;BME280;4663;49.120;9.730;2023-04-01T03:49:17;96634.88;;;4.41;91.45
19751;BME280;4663;49.120;9.730;2023-04-01T03:51:43;96637.28;;;3.89;93.62
19751;BME280;4663;49.120;9.730;2023-04-01T03:54:09;96644.16;;;4.07;93.74
19751;BME280;4663;49.120;9.730;2023-04-01T03:56:35;96645.56;;;3.94;93.83
19751;BME280;4663;49.120;9.730;2023-04-01T03:59:03;96633.03;;;3.95;93.30
19751;BME280;4663;49.120;9.730;2023-04-01T04:01:29;96644.25;;;3.90;93.97
19751;BME280;4663;49.120;9.730;2023-04-01T04:03:55;96638.41;;;4.18;93.46
19751;BME280;4663;49.120;9.730;2023-04-01T04:06:22;96640.41;;;4.16;93.34
19751;BME280;4663;49.120;9.730;2023-04-01T04:08:47;96633.00;;;4.03;92.41
19751;BME280;4663;49.120;9.730;2023-04-01T04:11:13;96635.53;;;3.96;93.49
19751;BME280;4663;49.120;9.730;2023-04-01T04:13:38;96632.16;;;4.03;91.94
19751;BME280;4663;49.120;9.730;2023-04-01T04:16:04;96641.53;;;3.99;92.64
19751;BME280;4663;49.120;9.730;2023-04-01T04:18:30;96642.13;;;4.09;93.37
19751;BME280;4663;49.120;9.730;2023-04-01T04:20:55;96639.97;;;4.28;90.32
19751;BME280;4663;49.120;9.730;2023-04-01T04:23:21;96639.28;;;3.87;94.05
19751;BME280;4663;49.120;9.730;2023-04-01T04:26:02;96637.56;;;3.94;93.98
19751;BME280;4663;49.120;9.730;2023-04-01T04:28:29;96643.75;;;4.18;93.51
19751;BME280;4663;49.120;9.730;2023-04-01T04:30:55;96639.88;;;3.98;93.83
19751;BME280;4663;49.120;9.730;2023-04-01T04:33:21;96641.75;;;4.12;92.48
19751;BME280;4663;49.120;9.730;2023-04-01T04:35:47;96635.53;;;3.96;94.02
19751;BME280;4663;49.120;9.730;2023-04-01T04:38:13;96640.00;;;4.04;91.71
19751;BME280;4663;49.120;9.730;2023-04-01T04:40:39;96639.75;;;4.14;91.93
19751;BME280;4663;49.120;9.730;2023-04-01T04:43:05;96633.06;;;4.18;91.88
19751;BME280;4663;49.120;9.730;2023-04-01T04:45:30;96639.75;;;4.14;92.85
19751;BME280;4663;49.120;9.730;2023-04-01T04:47:56;96653.75;;;3.93;93.01
19751;BME280;4663;49.120;9.730;2023-04-01T04:50:21;96640.56;;;4.38;90.08
19751;BME280;4663;49.120;9.730;2023-04-01T04:52:46;96645.53;;;4.65;89.70
19751;BME280;4663;49.120;9.730;2023-04-01T04:55:12;96633.72;;;4.59;87.11
19751;BME280;4663;49.120;9.730;2023-04-01T04:57:37;96631.66;;;4.46;90.73
19751;BME280;4663;49.120;9.730;2023-04-01T05:00:03;96627.28;;;4.30;90.12
19751;BME280;4663;49.120;9.730;2023-04-01T05:02:29;96639.91;;;4.36;89.80
19751;BME280;4663;49.120;9.730;2023-04-01T05:04:54;96626.19;;;4.39;88.53
19751;BME280;4663;49.120;9.730;2023-04-01T05:07:20;96636.28;;;4.29;90.29
19751;BME280;4663;49.120;9.730;2023-04-01T05:09:45;96638.19;;;4.43;90.52
19751;BME280;4663;49.120;9.730;2023-04-01T05:12:12;96631.69;;;4.61;89.12
19751;BME280;4663;49.120;9.730;2023-04-01T05:14:38;96631.81;;;4.44;89.32
19751;BME280;4663;49.120;9.730;2023-04-01T05:17:04;96627.66;;;4.27;88.60
19751;BME280;4663;49.120;9.730;2023-04-01T05:19:29;96638.78;;;4.30;90.40
19751;BME280;4663;49.120;9.730;2023-04-01T05:21:54;96637.97;;;4.30;89.72
19751;BME280;4663;49.120;9.730;2023-04-01T05:24:20;96636.78;;;4.32;90.81
19751;BME280;4663;49.120;9.730;2023-04-01T05:26:45;96626.47;;;4.44;90.51
19751;BME280;4663;49.120;9.730;2023-04-01T05:29:10;96631.53;;;4.39;90.35
19751;BME280;4663;49.120;9.730;2023-04-01T05:31:36;96633.06;;;4.57;90.81
19751;BME280;4663;49.120;9.730;2023-04-01T05:34:02;96628.25;;;4.52;89.97
19751;BME280;4663;49.120;9.730;2023-04-01T05:36:27;96635.44;;;4.52;91.42
19751;BME280;4663;49.120;9.730;2023-04-01T05:38:55;96633.69;;;4.44;89.13
19751;BME280;4663;49.120;9.730;2023-04-01T05:41:20;96632.06;;;4.58;89.09
19751;BME280;4663;49.120;9.730;2023-04-01T05:43:46;96634.72;;;4.58;88.53
19751;BME280;4663;49.120;9.730;2023-04-01T05:46:11;96626.91;;;4.71;86.22
19751;BME280;4663;49.120;9.730;2023-04-01T05:48:36;96635.53;;;4.58;88.25
19751;BME280;4663;49.120;9.730;2023-04-01T05:51:03;96636.88;;;4.78;86.65
19751;BME280;4663;49.120;9.730;2023-04-01T05:53:28;96637.34;;;4.81;85.15
19751;BME280;4663;49.120;9.730;2023-04-01T05:55:54;96639.38;;;4.79;86.50
19751;BME280;4663;49.120;9.730;2023-04-01T05:58:19;96635.31;;;4.98;88.12
19751;BME280;4663;49.120;9.730;2023-04-01T06:00:45;96628.13;;;4.84;86.45
19751;BME280;4663;49.120;9.730;2023-04-01T06:03:10;96626.19;;;4.78;85.60
19751;BME280;4663;49.120;9.730;2023-04-01T06:05:40;96634.72;;;5.11;86.27
19751;BME280;4663;49.120;9.730;2023-04-01T06:08:17;96629.91;;;5.07;86.52
19751;BME280;4663;49.120;9.730;2023-04-01T06:11:07;96624.03;;;5.11;84.62
19751;BME280;4663;49.120;9.730;2023-04-01T06:32:22;96629.25;;;5.05;85.09
19751;BME280;4663;49.120;9.730;2023-04-01T06:48:01;96610.59;;;5.79;83.94
19751;BME280;4663;49.120;9.730;2023-04-01T06:55:41;96613.03;;;5.95;84.72
19751;BME280;4663;49.120;9.730;2023-04-01T06:58:21;96613.13;;;6.02;85.48
19751;BME280;4663;49.120;9.730;2023-04-01T07:00:50;96605.19;;;5.94;82.78
19751;BME280;4663;49.120;9.730;2023-04-01T07:05:46;96612.72;;;5.83;85.43
19751;BME280;4663;49.120;9.730;2023-04-01T07:08:17;96607.56;;;6.04;84.93
19751;BME280;4663;49.120;9.730;2023-04-01T07:10:54;96608.31;;;6.19;85.08
19751;BME280;4663;49.120;9.730;2023-04-01T07:13:41;96614.09;;;6.16;86.25
19751;BME280;4663;49.120;9.730;2023-04-01T07:16:20;96616.63;;;6.24;86.59
19751;BME280;4663;49.120;9.730;2023-04-01T07:21:52;96626.06;;;6.20;85.79
19751;BME280;4663;49.120;9.730;2023-04-01T07:24:26;96620.97;;;6.25;85.57
19751;BME280;4663;49.120;9.730;2023-04-01T07:26:56;96619.53;;;6.08;85.27
19751;BME280;4663;49.120;9.730;2023-04-01T07:29:22;96629.63;;;6.27;85.17
19751;BME280;4663;49.120;9.730;2023-04-01T07:36:57;96641.75;;;6.23;88.20
19751;BME280;4663;49.120;9.730;2023-04-01T07:50:54;96635.88;;;6.35;87.27
19751;BME280;4663;49.120;9.730;2023-04-01T07:53:42;96640.28;;;6.43;87.85
19751;BME280;4663;49.120;9.730;2023-04-01T08:12:07;96636.72;;;6.57;86.95
19751;BME280;4663;49.120;9.730;2023-04-01T08:20:57;96643.88;;;6.28;87.31
19751;BME280;4663;49.120;9.730;2023-04-01T08:23:30;96642.84;;;6.29;87.53
19751;BME280;4663;49.120;9.730;2023-04-01T08:26:12;96648.00;;;6.31;88.03
19751;BME280;4663;49.120;9.730;2023-04-01T08:28:44;96637.94;;;6.11;87.88
19751;BME280;4663;49.120;9.730;2023-04-01T08:31:34;96640.94;;;6.23;87.63
19751;BME280;4663;49.120;9.730;2023-04-01T08:34:04;96648.16;;;6.00;89.32
19751;BME280;4663;49.120;9.730;2023-04-01T08:36:40;96645.47;;;6.22;89.66
19751;BME280;4663;49.120;9.730;2023-04-01T08:39:10;96644.06;;;6.26;89.18
19751;BME280;4663;49.120;9.730;2023-04-01T08:44:26;96639.44;;;6.42;87.70
19751;BME280;4663;49.120;9.730;2023-04-01T08:47:24;96638.19;;;6.16;87.99
19751;BME280;4663;49.120;9.730;2023-04-01T08:50:20;96648.91;;;6.38;88.86
19751;BME280;4663;49.120;9.730;2023-04-01T08:56:18;96647.31;;;6.44;86.60
19751;BME280;4663;49.120;9.730;2023-04-01T09:02:22;96658.38;;;6.56;88.61
19751;BME280;4663;49.120;9.730;2023-04-01T09:05:02;96664.09;;;6.74;89.40
19751;BME280;4663;49.120;9.730;2023-04-01T09:19:11;96665.34;;;6.50;88.33
19751;BME280;4663;49.120;9.730;2023-04-01T09:40:44;96655.69;;;6.56;89.84
19751;BME280;4663;49.120;9.730;2023-04-01T09:46:16;96663.16;;;6.38;90.37
19751;BME280;4663;49.120;9.730;2023-04-01T09:49:26;96666.63;;;6.39;88.69
19751;BME280;4663;49.120;9.730;2023-04-01T10:17:23;96672.56;;;7.07;88.54
19751;BME280;4663;49.120;9.730;2023-04-01T10:41:42;96683.06;;;7.30;88.27
19751;BME280;4663;49.120;9.730;2023-04-01T10:50:24;96681.41;;;6.72;88.91
19751;BME280;4663;49.120;9.730;2023-04-01T10:53:04;96674.63;;;7.04;88.42
19751;BME280;4663;49.120;9.730;2023-04-01T11:04:12;96677.53;;;6.81;90.66
19751;BME280;4663;49.120;9.730;2023-04-01T11:07:29;96686.31;;;7.25;89.76
19751;BME280;4663;49.120;9.730;2023-04-01T11:15:59;96676.63;;;7.66;87.50
19751;BME280;4663;49.120;9.730;2023-04-01T11:24:56;96695.31;;;7.46;88.24
19751;BME280;4663;49.120;9.730;2023-04-01T11:38:44;96698.41;;;7.43;88.81
19751;BME280;4663;49.120;9.730;2023-04-01T11:41:37;96699.03;;;7.45;90.14
19751;BME280;4663;49.120;9.730;2023-04-01T11:55:19;96708.75;;;7.88;87.88
19751;BME280;4663;49.120;9.730;2023-04-01T12:14:11;96728.06;;;7.35;86.91
19751;BME280;4663;49.120;9.730;2023-04-01T12:22:08;96725.25;;;7.43;88.65
19751;BME280;4663;49.120;9.730;2023-04-01T12:27:58;96725.00;;;7.38;87.85
19751;BME280;4663;49.120;9.730;2023-04-01T12:30:37;96727.41;;;7.26;89.83
19751;BME280;4663;49.120;9.730;2023-04-01T12:33:23;96731.81;;;7.40;88.48
19751;BME280;4663;49.120;9.730;2023-04-01T12:49:55;96730.25;;;7.17;87.81
19751;BME280;4663;49.120;9.730;2023-04-01T12:55:43;96730.28;;;7.24;88.87
19751;BME280;4663;49.120;9.730;2023-04-01T12:58:41;96737.81;;;7.71;90.69
19751;BME280;4663;49.120;9.730;2023-04-01T13:17:39;96749.19;;;7.44;88.35
19751;BME280;4663;49.120;9.730;2023-04-01T13:25:36;96740.88;;;7.33;88.04
19751;BME280;4663;49.120;9.730;2023-04-01T13:28:15;96750.16;;;7.65;89.18
19751;BME280;4663;49.120;9.730;2023-04-01T13:42:10;96763.69;;;7.50;89.81
19751;BME280;4663;49.120;9.730;2023-04-01T13:44:56;96757.25;;;7.44;89.40
19751;BME280;4663;49.120;9.730;2023-04-01T14:17:27;96773.47;;;7.29;88.28
19751;BME280;4663;49.120;9.730;2023-04-01T14:28:08;96766.63;;;6.98;89.31
19751;BME280;4663;49.120;9.730;2023-04-01T14:33:40;96778.94;;;7.14;90.80
19751;BME280;4663;49.120;9.730;2023-04-01T14:36:57;96777.56;;;7.25;87.24
19751;BME280;4663;49.120;9.730;2023-04-01T14:42:03;96781.47;;;7.23;87.92
19751;BME280;4663;49.120;9.730;2023-04-01T14:47:46;96777.81;;;7.30;88.83
19751;BME280;4663;49.120;9.730;2023-04-01T14:50:15;96783.88;;;7.39;90.60
19751;BME280;4663;49.120;9.730;2023-04-01T14:52:56;96791.94;;;6.89;87.65
19751;BME280;4663;49.120;9.730;2023-04-01T14:55:32;96792.97;;;6.88;89.72
19751;BME280;4663;49.120;9.730;2023-04-01T14:58:22;96793.59;;;7.12;88.54
19751;BME280;4663;49.120;9.730;2023-04-01T15:06:45;96807.25;;;7.17;88.36
19751;BME280;4663;49.120;9.730;2023-04-01T15:31:01;96805.06;;;7.27;87.34
19751;BME280;4663;49.120;9.730;2023-04-01T15:33:39;96816.00;;;7.04;88.44
19751;BME280;4663;49.120;9.730;2023-04-01T15:41:38;96819.91;;;7.23;88.99
19751;BME280;4663;49.120;9.730;2023-04-01T15:53:18;96831.16;;;7.12;86.72
19751;BME280;4663;49.120;9.730;2023-04-01T15:56:08;96823.44;;;7.30;87.16
19751;BME280;4663;49.120;9.730;2023-04-01T16:18:33;96839.81;;;7.14;86.13
19751;BME280;4663;49.120;9.730;2023-04-01T16:21:13;96844.50;;;7.05;86.83
19751;BME280;4663;49.120;9.730;2023-04-01T16:23:49;96854.91;;;6.93;88.12
19751;BME280;4663;49.120;9.730;2023-04-01T16:26:22;96843.16;;;6.72;85.27
19751;BME280;4663;49.120;9.730;2023-04-01T16:31:37;96863.25;;;6.46;89.38
19751;BME280;4663;49.120;9.730;2023-04-01T16:34:13;96860.59;;;6.83;87.83
19751;BME280;4663;49.120;9.730;2023-04-01T16:36:49;96853.72;;;6.59;86.34
19751;BME280;4663;49.120;9.730;2023-04-01T16:39:37;96855.38;;;6.45;86.48
19751;BME280;4663;49.120;9.730;2023-04-01T16:50:58;96865.28;;;6.44;88.96
19751;BME280;4663;49.120;9.730;2023-04-01T16:53:43;96871.50;;;6.30;90.20
19751;BME280;4663;49.120;9.730;2023-04-01T16:56:17;96870.47;;;6.31;87.58
19751;BME280;4663;49.120;9.730;2023-04-01T17:01:24;96873.78;;;6.18;89.69
19751;BME280;4663;49.120;9.730;2023-04-01T17:03:58;96874.66;;;6.03;91.13
19751;BME280;4663;49.120;9.730;2023-04-01T17:12:19;96882.59;;;5.96;92.27
19751;BME280;4663;49.120;9.730;2023-04-01T17:15:02;96881.31;;;6.07;92.37
19751;BME280;4663;49.120;9.730;2023-04-01T17:28:41;96882.69;;;6.03;87.87
19751;BME280;4663;49.120;9.730;2023-04-01T17:33:47;96896.44;;;5.85;91.66
19751;BME280;4663;49.120;9.730;2023-04-01T17:44:26;96912.91;;;6.12;91.85
19751;BME280;4663;49.120;9.730;2023-04-01T17:49:42;96908.19;;;5.99;90.70
19751;BME280;4663;49.120;9.730;2023-04-01T17:52:37;96913.84;;;5.66;93.09
19751;BME280;4663;49.120;9.730;2023-04-01T17:58:21;96913.31;;;5.85;91.28
19751;BME280;4663;49.120;9.730;2023-04-01T18:01:11;96918.28;;;5.58;93.20
19751;BME280;4663;49.120;9.730;2023-04-01T18:08:59;96941.59;;;5.49;93.85
19751;BME280;4663;49.120;9.730;2023-04-01T18:11:36;96938.06;;;5.72;92.64
19751;BME280;4663;49.120;9.730;2023-04-01T18:14:21;96935.25;;;5.66;92.68
19751;BME280;4663;49.120;9.730;2023-04-01T18:19:37;96953.81;;;5.67;93.41
19751;BME280;4663;49.120;9.730;2023-04-01T18:22:29;96954.44;;;5.07;94.71
19751;BME280;4663;49.120;9.730;2023-04-01T18:25:17;96959.44;;;5.57;93.86
19751;BME280;4663;49.120;9.730;2023-04-01T18:27:49;96962.28;;;5.56;94.48
19751;BME280;4663;49.120;9.730;2023-04-01T18:30:28;96968.78;;;5.38;95.11
19751;BME280;4663;49.120;9.730;2023-04-01T18:38:35;96975.50;;;5.57;94.18
19751;BME280;4663;49.120;9.730;2023-04-01T18:41:13;96974.53;;;5.73;92.39
19751;BME280;4663;49.120;9.730;2023-04-01T18:43:51;96983.53;;;5.34;93.41
19751;BME280;4663;49.120;9.730;2023-04-01T18:47:05;96985.38;;;5.57;92.73
19751;BME280;4663;49.120;9.730;2023-04-01T18:52:37;96999.94;;;5.78;92.93
19751;BME280;4663;49.120;9.730;2023-04-01T18:55:31;97004.47;;;5.54;93.92
19751;BME280;4663;49.120;9.730;2023-04-01T19:00:43;97010.88;;;5.21;94.89
19751;BME280;4663;49.120;9.730;2023-04-01T19:03:23;97017.13;;;5.36;93.09
19751;BME280;4663;49.120;9.730;2023-04-01T19:05:52;97009.84;;;5.22;93.92
19751;BME280;4663;49.120;9.730;2023-04-01T19:26:40;97025.84;;;4.98;95.31
19751;BME280;4663;49.120;9.730;2023-04-01T19:37:56;97021.47;;;4.57;95.94
19751;BME280;4663;49.120;9.730;2023-04-01T19:40:37;97018.94;;;4.64;96.72
19751;BME280;4663;49.120;9.730;2023-04-01T19:45:46;97024.72;;;4.84;95.21
19751;BME280;4663;49.120;9.730;2023-04-01T19:59:12;97032.31;;;4.64;96.12
19751;BME280;4663;49.120;9.730;2023-04-01T20:01:48;97034.59;;;4.84;95.99
19751;BME280;4663;49.120;9.730;2023-04-01T20:04:22;97037.63;;;4.81;95.27
19751;BME280;4663;49.120;9.730;2023-04-01T20:07:43;97040.47;;;4.79;96.22
19751;BME280;4663;49.120;9.730;2023-04-01T20:13:16;97035.28;;;4.78;95.40
19751;BME280;4663;49.120;9.730;2023-04-01T20:15:47;97045.25;;;5.01;94.66
19751;BME280;4663;49.120;9.730;2023-04-01T20:18:26;97047.25;;;4.98;93.77
19751;BME280;4663;49.120;9.730;2023-04-01T20:21:02;97039.78;;;4.77;94.31
19751;BME280;4663;49.120;9.730;2023-04-01T20:26:07;97054.69;;;4.71;95.69
19751;BME280;4663;49.120;9.730;2023-04-01T20:31:44;97057.50;;;4.78;95.95
19751;BME280;4663;49.120;9.730;2023-04-01T20:50:52;97087.81;;;4.62;95.87
19751;BME280;4663;49.120;9.730;2023-04-01T20:53:34;97084.41;;;4.85;95.14
19751;BME280;4663;49.120;9.730;2023-04-01T20:56:10;97095.13;;;4.77;95.91
19751;BME280;4663;49.120;9.730;2023-04-01T21:09:39;97102.72;;;5.13;94.70
19751;BME280;4663;49.120;9.730;2023-04-01T21:23:35;97122.44;;;5.04;95.19
19751;BME280;4663;49.120;9.730;2023-04-01T21:29:08;97135.53;;;4.90;95.60
19751;BME280;4663;49.120;9.730;2023-04-01T21:31:51;97132.16;;;5.13;94.92
19751;BME280;4663;49.120;9.730;2023-04-01T21:53:04;97144.22;;;5.09;94.88
19751;BME280;4663;49.120;9.730;2023-04-01T22:01:47;97156.63;;;4.77;95.15
19751;BME280;4663;49.120;9.730;2023-04-01T22:12:59;97150.88;;;5.05;94.83
19751;BME280;4663;49.120;9.730;2023-04-01T22:15:52;97149.72;;;4.99;94.53
19751;BME280;4663;49.120;9.730;2023-04-01T22:20:59;97153.25;;;4.91;95.53
19751;BME280;4663;49.120;9.730;2023-04-01T22:26:45;97156.59;;;5.10;94.51
19751;BME280;4663;49.120;9.730;2023-04-01T22:32:20;97162.44;;;4.89;95.00
19751;BME280;4663;49.120;9.730;2023-04-01T22:35:01;97161.13;;;4.76;95.34
19751;BME280;4663;49.120;9.730;2023-04-01T22:37:44;97168.28;;;4.84;95.84
19751;BME280;4663;49.120;9.730;2023-04-01T22:42:58;97161.75;;;5.03;95.62
19751;BME280;4663;49.120;9.730;2023-04-01T22:45:43;97166.94;;;4.96;94.91
19751;BME280;4663;49.120;9.730;2023-04-01T22:48:19;97165.41;;;5.02;94.32
19751;BME280;4663;49.120;9.730;2023-04-01T22:56:40;97166.59;;;5.08;93.59
19751;BME280;4663;49.120;9.730;2023-04-01T22:59:22;97160.94;;;4.86;94.81
19751;BME280;4663;49.120;9.730;2023-04-01T23:02:03;97169.78;;;5.11;93.50
19751;BME280;4663;49.120;9.730;2023-04-01T23:04:33;97180.19;;;4.65;96.38
19751;BME280;4663;49.120;9.730;2023-04-01T23:07:19;97177.16;;;4.93;95.07
19751;BME280;4663;49.120;9.730;2023-04-01T23:09:49;97189.38;;;4.79;95.81
19751;BME280;4663;49.120;9.730;2023-04-01T23:12:16;97189.22;;;4.72;96.48
19751;BME280;4663;49.120;9.730;2023-04-01T23:14:52;97183.84;;;4.80;95.53
19751;BME280;4663;49.120;9.730;2023-04-01T23:17:25;97195.41;;;4.81;95.87
19751;BME280;4663;49.120;9.730;2023-04-01T23:25:28;97199.03;;;4.96;95.01
19751;BME280;4663;49.120;9.730;2023-04-01T23:36:35;97204.75;;;4.85;95.47
19751;BME280;4663;49.120;9.730;2023-04-01T23:38:40;97213.13;;;4.82;96.25
19751;BME280;4663;49.120;9.730;2023-04-01T23:41:25;97219.81;;;4.69;96.42
19751;BME280;4663;49.120;9.730;2023-04-01T23:43:58;97214.94;;;4.90;95.20
19751;BME280;4663;49.120;9.730;2023-04-01T23:46:25;97223.31;;;4.95;94.61
19751;BME280;4663;49.120;9.730;2023-04-01T23:48:51;97238.16;;;4.47;97.34
19751;BME280;4663;49.120;9.730;2023-04-01T23:51:21;97232.31;;;4.77;96.51
19751;BME280;4663;49.120;9.730;2023-04-01T23:53:56;97227.50;;;4.81;95.66
19751;BME280;4663;49.120;9.730;2023-04-01T23:56:21;97224.97;;;4.79;95.78
19751;BME280;4663;49.120;9.730;2023-04-01T23:58:49;97236.81;;;5.02;95.09
